Terminal Aerodrome Forecast
Issued by NWS Wichita, KS

Home | Current Version | Previous Version | Graphics & Text | Print | Product List | Glossary On
Versions: 1 2 3 4 5 6 7 8 9 10 11 12 13 14 15 16 17 18
000
FTUS43 KICT 222300
TAFICT
TAF
KICT 222328Z 2300/2324 18010KT P6SM SCT150 BKN250
     FM230700 09005KT P6SM BKN080
     FM231400 09005KT P6SM SCT080
     FM231800 02004KT P6SM SCT150=

USA.gov is the U.S. government's official web portal to all federal, state and local government web resources and services.